TimeEDT,TemperatureF,Dew PointF,Humidity,Sea Level PressureIn,VisibilityMPH,Wind Direction,Wind SpeedMPH,Gust SpeedMPH,PrecipitationIn,Events,Conditions,WindDirDegrees,DateUTC
12:54 AM,75.9,71.1,85,30.10,10.0,SW,8.1,-,N/A,,Mostly Cloudy,230,2013-06-24 04:54:00
1:54 AM,75.0,70.0,84,30.09,10.0,SW,6.9,-,N/A,,Mostly Cloudy,230,2013-06-24 05:54:00
2:54 AM,75.0,70.0,84,30.09,10.0,SW,6.9,-,N/A,,Mostly Cloudy,230,2013-06-24 06:54:00
3:54 AM,73.9,70.0,87,30.09,10.0,WSW,4.6,-,N/A,,Mostly Cloudy,250,2013-06-24 07:54:00
4:54 AM,73.0,70.0,90,30.09,10.0,SSW,5.8,-,N/A,,Mostly Cloudy,200,2013-06-24 08:54:00
5:17 AM,73.4,69.8,88,30.09,8.0,SW,6.9,-,N/A,,Scattered Clouds,230,2013-06-24 09:17:00
5:38 AM,73.4,69.8,88,30.09,8.0,SW,8.1,-,N/A,,Mostly Cloudy,230,2013-06-24 09:38:00
5:54 AM,73.9,70.0,87,30.09,8.0,SW,8.1,-,N/A,,Mostly Cloudy,230,2013-06-24 09:54:00
6:00 AM,73.4,69.8,88,30.09,8.0,SW,10.4,-,N/A,,Overcast,230,2013-06-24 10:00:00
6:15 AM,73.4,69.8,88,30.09,8.0,SW,10.4,-,N/A,,Overcast,220,2013-06-24 10:15:00
6:54 AM,75.0,71.1,87,30.10,8.0,SW,12.7,-,N/A,,Overcast,230,2013-06-24 10:54:00
7:05 AM,73.4,71.6,94,30.10,6.0,WSW,9.2,-,N/A,,Overcast,240,2013-06-24 11:05:00
7:50 AM,75.2,71.6,89,30.10,7.0,SW,8.1,-,N/A,,Mostly Cloudy,220,2013-06-24 11:50:00
7:54 AM,75.9,71.1,85,30.10,7.0,SW,8.1,-,N/A,,Mostly Cloudy,220,2013-06-24 11:54:00
8:12 AM,77.0,71.6,83,30.10,8.0,SW,10.4,-,N/A,,Mostly Cloudy,220,2013-06-24 12:12:00
8:27 AM,77.0,71.6,83,30.10,8.0,SW,9.2,-,N/A,,Scattered Clouds,230,2013-06-24 12:27:00
8:54 AM,79.0,71.1,77,30.11,8.0,SW,9.2,-,N/A,,Scattered Clouds,220,2013-06-24 12:54:00
9:49 AM,82.4,71.6,70,30.10,10.0,SW,9.2,-,N/A,,Scattered Clouds,230,2013-06-24 13:49:00
9:54 AM,82.0,71.1,69,30.10,10.0,SW,8.1,-,N/A,,Scattered Clouds,230,2013-06-24 13:54:00
10:54 AM,86.0,72.0,63,30.10,10.0,SW,10.4,-,N/A,,Partly Cloudy,230,2013-06-24 14:54:00
11:54 AM,89.1,71.1,55,30.09,10.0,SW,9.2,-,N/A,,Mostly Cloudy,220,2013-06-24 15:54:00
12:54 PM,90.0,70.0,52,30.09,10.0,WSW,9.2,-,N/A,,Mostly Cloudy,240,2013-06-24 16:54:00
1:54 PM,91.0,70.0,50,30.05,10.0,WSW,11.5,-,N/A,,Mostly Cloudy,250,2013-06-24 17:54:00
2:08 PM,91.4,69.8,49,30.04,10.0,SW,8.1,-,N/A,Thunderstorm,Thunderstorm,230,2013-06-24 18:08:00
2:24 PM,89.6,69.8,52,30.05,10.0,WSW,11.5,-,0.00,Rain-Thunderstorm,Light Thunderstorms and Rain,250,2013-06-24 18:24:00
2:34 PM,87.8,73.4,62,30.05,5.0,West,15.0,-,0.00,Rain-Thunderstorm,Thunderstorms and Rain,280,2013-06-24 18:34:00
2:38 PM,87.8,69.8,55,30.05,3.0,WNW,26.5,34.5,0.00,Rain-Thunderstorm,Thunderstorms and Rain,290,2013-06-24 18:38:00
2:54 PM,75.0,62.1,64,30.09,3.0,WNW,24.2,39.1,0.04,Rain-Thunderstorm,Thunderstorms and Rain,290,2013-06-24 18:54:00
2:56 PM,75.2,60.8,61,30.09,1.0,West,18.4,34.5,0.02,Rain-Thunderstorm,Heavy Thunderstorms and Rain,280,2013-06-24 18:56:00
3:03 PM,77.0,60.8,57,30.08,2.0,West,21.9,31.1,0.11,Rain-Thunderstorm,Heavy Thunderstorms and Rain,270,2013-06-24 19:03:00
3:10 PM,77.0,62.6,61,30.10,3.0,WSW,17.3,31.1,0.16,Rain-Thunderstorm,Thunderstorms and Rain,240,2013-06-24 19:10:00
3:19 PM,73.4,64.4,73,30.06,5.0,SSW,16.1,-,0.17,Rain-Thunderstorm,Thunderstorms and Rain,210,2013-06-24 19:19:00
3:22 PM,73.4,64.4,73,30.06,5.0,SW,19.6,-,0.18,Rain-Thunderstorm,Thunderstorms and Rain,220,2013-06-24 19:22:00
3:26 PM,73.4,62.6,69,30.05,7.0,South,17.3,-,0.20,Thunderstorm,Thunderstorm,190,2013-06-24 19:26:00
3:35 PM,73.4,62.6,69,30.05,10.0,South,16.1,-,0.21,Thunderstorm,Thunderstorm,170,2013-06-24 19:35:00
3:54 PM,73.9,64.0,71,30.03,10.0,South,6.9,-,0.21,Thunderstorm,Thunderstorm,180,2013-06-24 19:54:00
4:03 PM,75.2,64.4,69,30.02,10.0,South,10.4,18.4,N/A,,Mostly Cloudy,190,2013-06-24 20:03:00
4:54 PM,78.1,66.9,68,30.01,10.0,SW,4.6,-,N/A,,Mostly Cloudy,220,2013-06-24 20:54:00
5:54 PM,82.0,64.9,56,30.00,10.0,SW,4.6,-,N/A,,Mostly Cloudy,220,2013-06-24 21:54:00
6:54 PM,80.1,69.1,69,30.02,10.0,Calm,Calm,-,N/A,,Mostly Cloudy,0,2013-06-24 22:54:00
7:24 PM,82.4,66.2,58,30.02,10.0,Calm,Calm,-,N/A,Thunderstorm,Thunderstorm,0,2013-06-24 23:24:00
7:43 PM,80.6,68.0,65,30.02,7.0,Calm,Calm,-,0.00,Rain-Thunderstorm,Light Thunderstorms and Rain,0,2013-06-24 23:43:00
7:46 PM,80.6,68.0,65,30.02,5.0,West,5.8,-,0.00,Rain-Thunderstorm,Thunderstorms and Rain,270,2013-06-24 23:46:00
7:54 PM,77.0,66.0,69,30.02,6.0,North,8.1,23.0,0.18,Rain-Thunderstorm,Light Thunderstorms and Rain,360,2013-06-24 23:54:00
8:08 PM,75.2,69.8,83,30.05,7.0,Variable,3.5,-,0.01,Rain-Thunderstorm,Light Thunderstorms and Rain,0,2013-06-25 00:08:00
8:17 PM,75.2,66.2,73,30.04,5.0,West,20.7,26.5,0.01,Rain-Thunderstorm,Light Thunderstorms and Rain,260,2013-06-25 00:17:00
8:26 PM,75.2,66.2,73,30.02,7.0,SW,9.2,-,0.01,Rain-Thunderstorm,Light Thunderstorms and Rain,230,2013-06-25 00:26:00
8:36 PM,75.2,62.6,65,29.99,10.0,SE,6.9,-,0.01,Rain-Thunderstorm,Light Thunderstorms and Rain,130,2013-06-25 00:36:00
8:54 PM,73.0,66.0,79,30.01,10.0,NE,5.8,-,0.01,Thunderstorm,Thunderstorm,50,2013-06-25 00:54:00
9:02 PM,71.6,66.2,83,30.02,10.0,ENE,5.8,-,N/A,,Mostly Cloudy,70,2013-06-25 01:02:00
9:54 PM,72.0,68.0,87,30.03,10.0,East,3.5,-,N/A,,Scattered Clouds,100,2013-06-25 01:54:00
10:54 PM,72.0,68.0,87,30.03,10.0,WSW,6.9,-,N/A,,Scattered Clouds,240,2013-06-25 02:54:00
11:54 PM,71.1,66.9,87,30.03,10.0,West,5.8,-,N/A,,Scattered Clouds,260,2013-06-25 03:54:00